sensor_id;sensor_type;location;lat;lon;timestamp;P1;durP1;ratioP1;P2;durP2;ratioP2
56319;SDS011;42226;42.382;23.748;2024-01-15T00:00:19;7.50;;;6.90;;
56319;SDS011;42226;42.382;23.748;2024-01-15T00:02:46;7.68;;;7.07;;
56319;SDS011;42226;42.382;23.748;2024-01-15T00:05:14;7.78;;;7.18;;
56319;SDS011;42226;42.382;23.748;2024-01-15T00:07:40;7.82;;;7.13;;
56319;SDS011;42226;42.382;23.748;2024-01-15T00:10:08;7.00;;;6.50;;
56319;SDS011;42226;42.382;23.748;2024-01-15T00:12:35;7.93;;;7.13;;
56319;SDS011;42226;42.382;23.748;2024-01-15T00:15:03;7.30;;;6.80;;
56319;SDS011;42226;42.382;23.748;2024-01-15T00:17:31;7.78;;;7.22;;
56319;SDS011;42226;42.382;23.748;2024-01-15T00:19:58;7.45;;;6.95;;
56319;SDS011;42226;42.382;23.748;2024-01-15T00:22:26;7.40;;;6.80;;
56319;SDS011;42226;42.382;23.748;2024-01-15T00:24:52;7.47;;;6.88;;
56319;SDS011;42226;42.382;23.748;2024-01-15T00:27:21;7.18;;;6.65;;
56319;SDS011;42226;42.382;23.748;2024-01-15T00:29:55;7.03;;;6.53;;
56319;SDS011;42226;42.382;23.748;2024-01-15T00:32:23;7.53;;;6.93;;
56319;SDS011;42226;42.382;23.748;2024-01-15T00:34:49;8.25;;;7.55;;
56319;SDS011;42226;42.382;23.748;2024-01-15T00:37:17;7.88;;;7.20;;
56319;SDS011;42226;42.382;23.748;2024-01-15T00:39:44;7.72;;;7.13;;
56319;SDS011;42226;42.382;23.748;2024-01-15T00:42:11;8.35;;;7.65;;
56319;SDS011;42226;42.382;23.748;2024-01-15T00:44:37;7.97;;;7.32;;
56319;SDS011;42226;42.382;23.748;2024-01-15T00:47:05;7.72;;;7.03;;
56319;SDS011;42226;42.382;23.748;2024-01-15T00:49:33;8.00;;;7.40;;
56319;SDS011;42226;42.382;23.748;2024-01-15T00:52:00;7.68;;;7.03;;
56319;SDS011;42226;42.382;23.748;2024-01-15T00:54:28;7.53;;;6.82;;
56319;SDS011;42226;42.382;23.748;2024-01-15T00:56:55;8.13;;;7.38;;
56319;SDS011;42226;42.382;23.748;2024-01-15T00:59:23;8.35;;;7.55;;
56319;SDS011;42226;42.382;23.748;2024-01-15T01:01:49;8.55;;;7.75;;
56319;SDS011;42226;42.382;23.748;2024-01-15T01:04:17;8.30;;;6.80;;
56319;SDS011;42226;42.382;23.748;2024-01-15T01:06:44;8.32;;;7.63;;
56319;SDS011;42226;42.382;23.748;2024-01-15T01:09:12;8.00;;;7.30;;
56319;SDS011;42226;42.382;23.748;2024-01-15T01:11:40;8.63;;;7.90;;
56319;SDS011;42226;42.382;23.748;2024-01-15T01:14:07;8.13;;;7.43;;
56319;SDS011;42226;42.382;23.748;2024-01-15T01:16:35;8.07;;;7.38;;
56319;SDS011;42226;42.382;23.748;2024-01-15T01:19:05;8.10;;;7.40;;
56319;SDS011;42226;42.382;23.748;2024-01-15T01:21:33;7.65;;;7.05;;
56319;SDS011;42226;42.382;23.748;2024-01-15T01:24:00;7.00;;;6.40;;
56319;SDS011;42226;42.382;23.748;2024-01-15T01:26:28;7.82;;;7.13;;
56319;SDS011;42226;42.382;23.748;2024-01-15T01:28:55;7.30;;;6.80;;
56319;SDS011;42226;42.382;23.748;2024-01-15T01:31:22;7.35;;;6.75;;
56319;SDS011;42226;42.382;23.748;2024-01-15T01:33:50;7.07;;;6.47;;
56319;SDS011;42226;42.382;23.748;2024-01-15T01:36:19;7.28;;;6.68;;
56319;SDS011;42226;42.382;23.748;2024-01-15T01:38:46;7.85;;;7.18;;
56319;SDS011;42226;42.382;23.748;2024-01-15T01:41:14;6.93;;;6.43;;
56319;SDS011;42226;42.382;23.748;2024-01-15T01:43:41;7.30;;;6.60;;
56319;SDS011;42226;42.382;23.748;2024-01-15T01:46:10;7.15;;;6.55;;
56319;SDS011;42226;42.382;23.748;2024-01-15T01:48:38;7.18;;;6.57;;
56319;SDS011;42226;42.382;23.748;2024-01-15T01:51:06;7.10;;;6.60;;
56319;SDS011;42226;42.382;23.748;2024-01-15T01:53:34;7.93;;;7.20;;
56319;SDS011;42226;42.382;23.748;2024-01-15T01:56:02;7.20;;;6.70;;
56319;SDS011;42226;42.382;23.748;2024-01-15T01:58:31;8.02;;;7.32;;
56319;SDS011;42226;42.382;23.748;2024-01-15T02:00:58;7.63;;;7.00;;
56319;SDS011;42226;42.382;23.748;2024-01-15T02:03:27;7.78;;;7.07;;
56319;SDS011;42226;42.382;23.748;2024-01-15T02:05:55;7.07;;;6.47;;
56319;SDS011;42226;42.382;23.748;2024-01-15T02:08:24;7.80;;;7.20;;
56319;SDS011;42226;42.382;23.748;2024-01-15T02:10:52;8.13;;;7.43;;
56319;SDS011;42226;42.382;23.748;2024-01-15T02:13:20;8.25;;;7.47;;
56319;SDS011;42226;42.382;23.748;2024-01-15T02:15:47;8.55;;;7.85;;
56319;SDS011;42226;42.382;23.748;2024-01-15T02:18:15;8.38;;;7.63;;
56319;SDS011;42226;42.382;23.748;2024-01-15T02:20:42;8.60;;;7.80;;
56319;SDS011;42226;42.382;23.748;2024-01-15T02:23:09;8.82;;;8.05;;
56319;SDS011;42226;42.382;23.748;2024-01-15T02:25:43;7.88;;;7.18;;
56319;SDS011;42226;42.382;23.748;2024-01-15T02:28:12;8.73;;;7.93;;
56319;SDS011;42226;42.382;23.748;2024-01-15T02:30:42;9.18;;;8.40;;
56319;SDS011;42226;42.382;23.748;2024-01-15T02:33:11;8.73;;;8.00;;
56319;SDS011;42226;42.382;23.748;2024-01-15T02:35:38;9.35;;;8.45;;
56319;SDS011;42226;42.382;23.748;2024-01-15T02:38:05;7.75;;;7.05;;
56319;SDS011;42226;42.382;23.748;2024-01-15T02:40:34;8.45;;;7.65;;
56319;SDS011;42226;42.382;23.748;2024-01-15T02:43:01;8.32;;;7.53;;
56319;SDS011;42226;42.382;23.748;2024-01-15T02:45:29;8.07;;;7.28;;
56319;SDS011;42226;42.382;23.748;2024-01-15T02:47:57;8.02;;;7.32;;
56319;SDS011;42226;42.382;23.748;2024-01-15T02:50:24;8.68;;;7.88;;
56319;SDS011;42226;42.382;23.748;2024-01-15T02:52:52;8.05;;;7.35;;
56319;SDS011;42226;42.382;23.748;2024-01-15T02:55:20;8.35;;;7.57;;
56319;SDS011;42226;42.382;23.748;2024-01-15T02:57:47;7.40;;;6.80;;
56319;SDS011;42226;42.382;23.748;2024-01-15T03:00:14;7.10;;;6.53;;
56319;SDS011;42226;42.382;23.748;2024-01-15T03:02:45;7.28;;;6.68;;
56319;SDS011;42226;42.382;23.748;2024-01-15T03:05:11;6.88;;;6.32;;
56319;SDS011;42226;42.382;23.748;2024-01-15T03:07:39;6.65;;;6.15;;
56319;SDS011;42226;42.382;23.748;2024-01-15T03:10:06;7.90;;;7.30;;
56319;SDS011;42226;42.382;23.748;2024-01-15T03:12:34;8.70;;;7.60;;
56319;SDS011;42226;42.382;23.748;2024-01-15T03:15:01;7.55;;;6.95;;
56319;SDS011;42226;42.382;23.748;2024-01-15T03:17:29;7.88;;;7.18;;
56319;SDS011;42226;42.382;23.748;2024-01-15T03:19:57;8.60;;;7.80;;
56319;SDS011;42226;42.382;23.748;2024-01-15T03:22:24;8.68;;;7.90;;
56319;SDS011;42226;42.382;23.748;2024-01-15T03:24:52;7.97;;;7.28;;
56319;SDS011;42226;42.382;23.748;2024-01-15T03:27:19;9.05;;;8.20;;
56319;SDS011;42226;42.382;23.748;2024-01-15T03:29:46;9.27;;;8.38;;
56319;SDS011;42226;42.382;23.748;2024-01-15T03:32:13;9.35;;;8.40;;
56319;SDS011;42226;42.382;23.748;2024-01-15T03:34:42;9.30;;;8.38;;
56319;SDS011;42226;42.382;23.748;2024-01-15T03:37:08;9.48;;;8.57;;
56319;SDS011;42226;42.382;23.748;2024-01-15T03:39:36;9.05;;;8.25;;
56319;SDS011;42226;42.382;23.748;2024-01-15T03:42:03;8.98;;;8.15;;
56319;SDS011;42226;42.382;23.748;2024-01-15T03:44:31;8.70;;;7.90;;
56319;SDS011;42226;42.382;23.748;2024-01-15T03:46:59;8.50;;;7.72;;
56319;SDS011;42226;42.382;23.748;2024-01-15T03:49:27;9.18;;;8.38;;
56319;SDS011;42226;42.382;23.748;2024-01-15T03:51:55;8.73;;;7.88;;
56319;SDS011;42226;42.382;23.748;2024-01-15T03:54:21;9.10;;;8.30;;
56319;SDS011;42226;42.382;23.748;2024-01-15T03:56:49;8.63;;;7.72;;
56319;SDS011;42226;42.382;23.748;2024-01-15T03:59:16;8.82;;;8.07;;
56319;SDS011;42226;42.382;23.748;2024-01-15T04:01:51;9.15;;;8.30;;
56319;SDS011;42226;42.382;23.748;2024-01-15T04:04:18;9.48;;;8.45;;
56319;SDS011;42226;42.382;23.748;2024-01-15T04:06:45;8.88;;;8.07;;
56319;SDS011;42226;42.382;23.748;2024-01-15T04:09:12;9.25;;;8.45;;
56319;SDS011;42226;42.382;23.748;2024-01-15T04:11:40;9.15;;;8.27;;
56319;SDS011;42226;42.382;23.748;2024-01-15T04:14:08;9.20;;;8.32;;
56319;SDS011;42226;42.382;23.748;2024-01-15T04:16:37;9.27;;;8.38;;
56319;SDS011;42226;42.382;23.748;2024-01-15T04:19:05;9.07;;;8.18;;
56319;SDS011;42226;42.382;23.748;2024-01-15T04:21:33;9.15;;;8.25;;
56319;SDS011;42226;42.382;23.748;2024-01-15T04:24:01;8.35;;;7.65;;
56319;SDS011;42226;42.382;23.748;2024-01-15T04:26:28;9.15;;;8.25;;
56319;SDS011;42226;42.382;23.748;2024-01-15T04:28:54;8.85;;;8.05;;
56319;SDS011;42226;42.382;23.748;2024-01-15T04:31:22;8.80;;;8.00;;
56319;SDS011;42226;42.382;23.748;2024-01-15T04:33:55;8.52;;;7.82;;
56319;SDS011;42226;42.382;23.748;2024-01-15T04:36:23;9.05;;;8.27;;
56319;SDS011;42226;42.382;23.748;2024-01-15T04:38:51;8.45;;;7.68;;
56319;SDS011;42226;42.382;23.748;2024-01-15T04:41:17;8.13;;;7.43;;
56319;SDS011;42226;42.382;23.748;2024-01-15T04:46:55;8.23;;;7.50;;
56319;SDS011;42226;42.382;23.748;2024-01-15T04:49:21;8.70;;;7.80;;
56319;SDS011;42226;42.382;23.748;2024-01-15T04:51:52;8.75;;;7.95;;
56319;SDS011;42226;42.382;23.748;2024-01-15T04:54:19;8.30;;;7.50;;
56319;SDS011;42226;42.382;23.748;2024-01-15T04:56:47;8.18;;;7.38;;
56319;SDS011;42226;42.382;23.748;2024-01-15T04:59:14;8.38;;;7.68;;
56319;SDS011;42226;42.382;23.748;2024-01-15T05:01:42;8.07;;;7.28;;
56319;SDS011;42226;42.382;23.748;2024-01-15T05:04:09;8.00;;;7.15;;
56319;SDS011;42226;42.382;23.748;2024-01-15T05:06:37;7.75;;;7.07;;
56319;SDS011;42226;42.382;23.748;2024-01-15T05:09:04;8.38;;;7.22;;
56319;SDS011;42226;42.382;23.748;2024-01-15T05:11:31;7.80;;;7.10;;
56319;SDS011;42226;42.382;23.748;2024-01-15T05:13:58;8.02;;;7.32;;
56319;SDS011;42226;42.382;23.748;2024-01-15T05:16:25;7.88;;;7.07;;
56319;SDS011;42226;42.382;23.748;2024-01-15T05:18:52;8.00;;;7.30;;
56319;SDS011;42226;42.382;23.748;2024-01-15T05:21:20;7.80;;;7.20;;
56319;SDS011;42226;42.382;23.748;2024-01-15T05:23:47;7.68;;;7.07;;
56319;SDS011;42226;42.382;23.748;2024-01-15T05:26:15;7.35;;;6.78;;
56319;SDS011;42226;42.382;23.748;2024-01-15T05:28:42;7.55;;;6.95;;
56319;SDS011;42226;42.382;23.748;2024-01-15T05:31:10;7.40;;;6.80;;
56319;SDS011;42226;42.382;23.748;2024-01-15T05:33:37;6.85;;;6.35;;
56319;SDS011;42226;42.382;23.748;2024-01-15T05:36:04;7.07;;;6.50;;
56319;SDS011;42226;42.382;23.748;2024-01-15T05:38:31;6.50;;;6.00;;
56319;SDS011;42226;42.382;23.748;2024-01-15T05:40:59;7.18;;;6.60;;
56319;SDS011;42226;42.382;23.748;2024-01-15T05:46:30;6.88;;;6.38;;
56319;SDS011;42226;42.382;23.748;2024-01-15T05:48:58;6.75;;;6.30;;
56319;SDS011;42226;42.382;23.748;2024-01-15T05:51:26;7.28;;;6.68;;
56319;SDS011;42226;42.382;23.748;2024-01-15T05:53:53;6.30;;;5.80;;
56319;SDS011;42226;42.382;23.748;2024-01-15T05:56:21;6.50;;;6.00;;
56319;SDS011;42226;42.382;23.748;2024-01-15T05:58:50;6.20;;;5.80;;
56319;SDS011;42226;42.382;23.748;2024-01-15T06:01:17;6.07;;;5.68;;
56319;SDS011;42226;42.382;23.748;2024-01-15T06:03:45;6.75;;;6.25;;
56319;SDS011;42226;42.382;23.748;2024-01-15T06:06:12;6.90;;;6.32;;
56319;SDS011;42226;42.382;23.748;2024-01-15T06:08:39;6.80;;;6.30;;
56319;SDS011;42226;42.382;23.748;2024-01-15T06:11:07;6.90;;;6.35;;
56319;SDS011;42226;42.382;23.748;2024-01-15T06:13:33;6.53;;;6.03;;
56319;SDS011;42226;42.382;23.748;2024-01-15T06:16:00;6.53;;;6.13;;
56319;SDS011;42226;42.382;23.748;2024-01-15T06:18:28;6.80;;;6.22;;
56319;SDS011;42226;42.382;23.748;2024-01-15T06:20:55;6.80;;;6.30;;
56319;SDS011;42226;42.382;23.748;2024-01-15T06:23:23;7.18;;;6.57;;
56319;SDS011;42226;42.382;23.748;2024-01-15T06:25:50;6.90;;;6.40;;
56319;SDS011;42226;42.382;23.748;2024-01-15T06:31:02;6.88;;;6.40;;
56319;SDS011;42226;42.382;23.748;2024-01-15T06:33:31;7.00;;;6.50;;
56319;SDS011;42226;42.382;23.748;2024-01-15T06:35:59;6.47;;;5.97;;
56319;SDS011;42226;42.382;23.748;2024-01-15T06:38:26;7.13;;;6.63;;
56319;SDS011;42226;42.382;23.748;2024-01-15T06:40:53;6.68;;;6.18;;
56319;SDS011;42226;42.382;23.748;2024-01-15T06:43:21;7.10;;;6.40;;
56319;SDS011;42226;42.382;23.748;2024-01-15T06:45:48;5.63;;;5.25;;
56319;SDS011;42226;42.382;23.748;2024-01-15T06:48:17;6.88;;;6.38;;
56319;SDS011;42226;42.382;23.748;2024-01-15T06:50:43;6.35;;;5.88;;
56319;SDS011;42226;42.382;23.748;2024-01-15T06:53:11;6.82;;;6.32;;
56319;SDS011;42226;42.382;23.748;2024-01-15T06:55:38;6.15;;;5.65;;
56319;SDS011;42226;42.382;23.748;2024-01-15T06:58:05;7.35;;;6.75;;
56319;SDS011;42226;42.382;23.748;2024-01-15T07:00:32;7.18;;;6.57;;
56319;SDS011;42226;42.382;23.748;2024-01-15T07:03:00;6.68;;;6.18;;
56319;SDS011;42226;42.382;23.748;2024-01-15T07:05:27;6.70;;;6.20;;
56319;SDS011;42226;42.382;23.748;2024-01-15T07:07:56;6.38;;;5.88;;
56319;SDS011;42226;42.382;23.748;2024-01-15T07:10:24;6.70;;;6.20;;
56319;SDS011;42226;42.382;23.748;2024-01-15T07:12:51;7.05;;;6.45;;
56319;SDS011;42226;42.382;23.748;2024-01-15T07:15:20;6.55;;;5.95;;
56319;SDS011;42226;42.382;23.748;2024-01-15T07:17:47;6.30;;;5.90;;
56319;SDS011;42226;42.382;23.748;2024-01-15T07:20:14;6.53;;;6.13;;
56319;SDS011;42226;42.382;23.748;2024-01-15T07:22:41;6.45;;;6.00;;
56319;SDS011;42226;42.382;23.748;2024-01-15T07:25:08;5.93;;;5.53;;
56319;SDS011;42226;42.382;23.748;2024-01-15T07:27:36;6.30;;;5.80;;
56319;SDS011;42226;42.382;23.748;2024-01-15T07:30:03;6.82;;;6.32;;
56319;SDS011;42226;42.382;23.748;2024-01-15T07:32:32;6.28;;;5.78;;
56319;SDS011;42226;42.382;23.748;2024-01-15T07:35:00;6.38;;;5.85;;
56319;SDS011;42226;42.382;23.748;2024-01-15T07:37:27;6.40;;;6.00;;
56319;SDS011;42226;42.382;23.748;2024-01-15T07:39:53;6.18;;;5.78;;
56319;SDS011;42226;42.382;23.748;2024-01-15T07:42:21;7.10;;;6.55;;
56319;SDS011;42226;42.382;23.748;2024-01-15T07:44:47;5.85;;;5.45;;
56319;SDS011;42226;42.382;23.748;2024-01-15T07:47:17;6.47;;;5.97;;
56319;SDS011;42226;42.382;23.748;2024-01-15T07:49:43;6.50;;;6.00;;
56319;SDS011;42226;42.382;23.748;2024-01-15T07:52:11;6.50;;;6.10;;
56319;SDS011;42226;42.382;23.748;2024-01-15T07:54:40;6.78;;;6.30;;
56319;SDS011;42226;42.382;23.748;2024-01-15T07:57:07;6.93;;;6.35;;
56319;SDS011;42226;42.382;23.748;2024-01-15T07:59:35;8.20;;;7.50;;
56319;SDS011;42226;42.382;23.748;2024-01-15T08:02:03;7.13;;;6.53;;
56319;SDS011;42226;42.382;23.748;2024-01-15T08:04:30;7.18;;;6.68;;
56319;SDS011;42226;42.382;23.748;2024-01-15T08:06:57;6.72;;;6.22;;
56319;SDS011;42226;42.382;23.748;2024-01-15T08:09:25;6.82;;;6.25;;
56319;SDS011;42226;42.382;23.748;2024-01-15T08:11:51;6.97;;;6.40;;
56319;SDS011;42226;42.382;23.748;2024-01-15T08:14:19;6.90;;;6.40;;
56319;SDS011;42226;42.382;23.748;2024-01-15T08:16:46;7.47;;;6.88;;
56319;SDS011;42226;42.382;23.748;2024-01-15T08:19:14;7.63;;;6.90;;
56319;SDS011;42226;42.382;23.748;2024-01-15T08:21:42;7.25;;;6.75;;
56319;SDS011;42226;42.382;23.748;2024-01-15T08:24:10;7.00;;;6.50;;
56319;SDS011;42226;42.382;23.748;2024-01-15T08:26:37;6.85;;;6.35;;
56319;SDS011;42226;42.382;23.748;2024-01-15T08:29:04;7.30;;;6.70;;
56319;SDS011;42226;42.382;23.748;2024-01-15T08:31:31;6.68;;;6.18;;
56319;SDS011;42226;42.382;23.748;2024-01-15T08:33:58;6.70;;;6.20;;
56319;SDS011;42226;42.382;23.748;2024-01-15T08:39:19;6.35;;;5.85;;
56319;SDS011;42226;42.382;23.748;2024-01-15T08:41:47;7.50;;;6.90;;
56319;SDS011;42226;42.382;23.748;2024-01-15T08:44:14;6.72;;;6.22;;
56319;SDS011;42226;42.382;23.748;2024-01-15T08:46:43;6.72;;;6.20;;
56319;SDS011;42226;42.382;23.748;2024-01-15T08:49:10;6.88;;;6.38;;
56319;SDS011;42226;42.382;23.748;2024-01-15T08:51:38;6.72;;;6.20;;
56319;SDS011;42226;42.382;23.748;2024-01-15T08:54:04;7.03;;;6.32;;
56319;SDS011;42226;42.382;23.748;2024-01-15T08:56:34;6.43;;;5.93;;
56319;SDS011;42226;42.382;23.748;2024-01-15T08:59:01;5.80;;;5.38;;
56319;SDS011;42226;42.382;23.748;2024-01-15T09:01:28;6.55;;;6.07;;
56319;SDS011;42226;42.382;23.748;2024-01-15T09:03:56;6.97;;;6.38;;
56319;SDS011;42226;42.382;23.748;2024-01-15T09:06:23;6.55;;;6.05;;
56319;SDS011;42226;42.382;23.748;2024-01-15T09:08:51;6.68;;;6.18;;
56319;SDS011;42226;42.382;23.748;2024-01-15T09:11:19;6.78;;;6.28;;
56319;SDS011;42226;42.382;23.748;2024-01-15T09:13:46;6.63;;;6.13;;
56319;SDS011;42226;42.382;23.748;2024-01-15T09:16:14;6.60;;;6.03;;
56319;SDS011;42226;42.382;23.748;2024-01-15T09:18:42;6.60;;;6.10;;
56319;SDS011;42226;42.382;23.748;2024-01-15T09:21:09;6.90;;;6.40;;
56319;SDS011;42226;42.382;23.748;2024-01-15T09:23:37;7.03;;;6.43;;
56319;SDS011;42226;42.382;23.748;2024-01-15T09:26:04;7.20;;;6.60;;
56319;SDS011;42226;42.382;23.748;2024-01-15T09:28:33;7.82;;;7.13;;
56319;SDS011;42226;42.382;23.748;2024-01-15T09:31:00;8.30;;;7.57;;
56319;SDS011;42226;42.382;23.748;2024-01-15T09:33:29;8.82;;;8.02;;
56319;SDS011;42226;42.382;23.748;2024-01-15T09:36:00;8.73;;;7.93;;
56319;SDS011;42226;42.382;23.748;2024-01-15T09:38:30;10.23;;;8.25;;
56319;SDS011;42226;42.382;23.748;2024-01-15T09:40:57;10.23;;;9.18;;
56319;SDS011;42226;42.382;23.748;2024-01-15T09:43:25;11.82;;;9.18;;
56319;SDS011;42226;42.382;23.748;2024-01-15T09:45:52;11.02;;;9.10;;
56319;SDS011;42226;42.382;23.748;2024-01-15T09:48:20;11.20;;;8.95;;
56319;SDS011;42226;42.382;23.748;2024-01-15T09:50:49;9.77;;;8.55;;
56319;SDS011;42226;42.382;23.748;2024-01-15T09:53:17;9.55;;;8.65;;
56319;SDS011;42226;42.382;23.748;2024-01-15T09:55:46;8.95;;;8.07;;
56319;SDS011;42226;42.382;23.748;2024-01-15T09:58:15;9.73;;;8.60;;
56319;SDS011;42226;42.382;23.748;2024-01-15T10:00:42;9.15;;;8.25;;
56319;SDS011;42226;42.382;23.748;2024-01-15T10:03:12;8.95;;;8.05;;
56319;SDS011;42226;42.382;23.748;2024-01-15T10:05:40;9.90;;;8.95;;
56319;SDS011;42226;42.382;23.748;2024-01-15T10:08:07;9.38;;;8.48;;
56319;SDS011;42226;42.382;23.748;2024-01-15T10:10:36;10.25;;;9.13;;
56319;SDS011;42226;42.382;23.748;2024-01-15T10:13:04;10.43;;;9.40;;
56319;SDS011;42226;42.382;23.748;2024-01-15T10:15:37;9.98;;;9.05;;
56319;SDS011;42226;42.382;23.748;2024-01-15T10:18:05;9.80;;;8.90;;
56319;SDS011;42226;42.382;23.748;2024-01-15T10:20:33;9.57;;;8.65;;
56319;SDS011;42226;42.382;23.748;2024-01-15T10:23:01;9.73;;;8.82;;
56319;SDS011;42226;42.382;23.748;2024-01-15T10:25:29;9.40;;;8.60;;
56319;SDS011;42226;42.382;23.748;2024-01-15T10:28:03;8.60;;;7.80;;
56319;SDS011;42226;42.382;23.748;2024-01-15T10:30:31;8.75;;;8.05;;
56319;SDS011;42226;42.382;23.748;2024-01-15T10:33:00;8.05;;;7.35;;
56319;SDS011;42226;42.382;23.748;2024-01-15T10:35:33;9.73;;;8.73;;
56319;SDS011;42226;42.382;23.748;2024-01-15T10:38:01;9.02;;;8.13;;
56319;SDS011;42226;42.382;23.748;2024-01-15T10:40:29;8.88;;;8.18;;
56319;SDS011;42226;42.382;23.748;2024-01-15T10:42:58;9.43;;;8.50;;
56319;SDS011;42226;42.382;23.748;2024-01-15T10:45:26;9.00;;;8.18;;
56319;SDS011;42226;42.382;23.748;2024-01-15T10:47:53;8.82;;;8.10;;
56319;SDS011;42226;42.382;23.748;2024-01-15T10:50:24;8.48;;;7.75;;
56319;SDS011;42226;42.382;23.748;2024-01-15T10:52:51;8.25;;;7.50;;
56319;SDS011;42226;42.382;23.748;2024-01-15T10:55:18;7.53;;;6.93;;
56319;SDS011;42226;42.382;23.748;2024-01-15T10:57:47;7.75;;;7.07;;
56319;SDS011;42226;42.382;23.748;2024-01-15T11:00:14;8.57;;;7.88;;
56319;SDS011;42226;42.382;23.748;2024-01-15T11:02:42;8.80;;;7.90;;
56319;SDS011;42226;42.382;23.748;2024-01-15T11:05:12;8.50;;;7.70;;
56319;SDS011;42226;42.382;23.748;2024-01-15T11:07:43;8.50;;;7.70;;
56319;SDS011;42226;42.382;23.748;2024-01-15T11:15:57;8.55;;;7.75;;
56319;SDS011;42226;42.382;23.748;2024-01-15T11:18:36;8.35;;;7.57;;
56319;SDS011;42226;42.382;23.748;2024-01-15T11:21:27;8.90;;;8.18;;
56319;SDS011;42226;42.382;23.748;2024-01-15T11:23:57;9.05;;;8.23;;
56319;SDS011;42226;42.382;23.748;2024-01-15T11:32:10;8.68;;;7.80;;
56319;SDS011;42226;42.382;23.748;2024-01-15T11:37:27;8.60;;;7.90;;
56319;SDS011;42226;42.382;23.748;2024-01-15T11:40:18;9.07;;;8.30;;
56319;SDS011;42226;42.382;23.748;2024-01-15T11:42:47;8.65;;;7.88;;
56319;SDS011;42226;42.382;23.748;2024-01-15T11:45:16;7.63;;;7.00;;
56319;SDS011;42226;42.382;23.748;2024-01-15T11:50:28;8.23;;;7.53;;
56319;SDS011;42226;42.382;23.748;2024-01-15T11:53:13;7.82;;;7.10;;
56319;SDS011;42226;42.382;23.748;2024-01-15T11:56:03;8.27;;;7.57;;
56319;SDS011;42226;42.382;23.748;2024-01-15T11:58:40;7.97;;;7.18;;
56319;SDS011;42226;42.382;23.748;2024-01-15T12:01:07;7.88;;;7.18;;
56319;SDS011;42226;42.382;23.748;2024-01-15T12:03:35;7.93;;;7.22;;
56319;SDS011;42226;42.382;23.748;2024-01-15T12:06:06;8.45;;;7.75;;
56319;SDS011;42226;42.382;23.748;2024-01-15T12:08:35;9.23;;;8.40;;
56319;SDS011;42226;42.382;23.748;2024-01-15T12:11:06;8.73;;;7.93;;
56319;SDS011;42226;42.382;23.748;2024-01-15T12:13:39;8.93;;;8.07;;
56319;SDS011;42226;42.382;23.748;2024-01-15T12:16:08;8.60;;;7.80;;
56319;SDS011;42226;42.382;23.748;2024-01-15T12:18:35;9.05;;;8.15;;
56319;SDS011;42226;42.382;23.748;2024-01-15T12:21:03;10.00;;;9.00;;
56319;SDS011;42226;42.382;23.748;2024-01-15T12:23:30;10.13;;;9.13;;
56319;SDS011;42226;42.382;23.748;2024-01-15T12:26:00;9.82;;;8.40;;
56319;SDS011;42226;42.382;23.748;2024-01-15T12:28:27;10.60;;;9.60;;
56319;SDS011;42226;42.382;23.748;2024-01-15T12:30:56;9.48;;;8.60;;
56319;SDS011;42226;42.382;23.748;2024-01-15T12:33:25;10.18;;;9.18;;
56319;SDS011;42226;42.382;23.748;2024-01-15T12:35:54;10.27;;;9.27;;
56319;SDS011;42226;42.382;23.748;2024-01-15T12:38:22;9.52;;;8.63;;
56319;SDS011;42226;42.382;23.748;2024-01-15T12:40:49;10.18;;;9.18;;
56319;SDS011;42226;42.382;23.748;2024-01-15T12:43:17;10.63;;;9.50;;
56319;SDS011;42226;42.382;23.748;2024-01-15T12:45:45;11.05;;;9.82;;
56319;SDS011;42226;42.382;23.748;2024-01-15T12:48:12;11.07;;;9.90;;
56319;SDS011;42226;42.382;23.748;2024-01-15T12:50:43;11.20;;;10.00;;
56319;SDS011;42226;42.382;23.748;2024-01-15T12:53:10;9.77;;;8.77;;
56319;SDS011;42226;42.382;23.748;2024-01-15T12:55:37;9.30;;;8.38;;
56319;SDS011;42226;42.382;23.748;2024-01-15T12:58:04;9.63;;;8.63;;
56319;SDS011;42226;42.382;23.748;2024-01-15T13:00:32;9.10;;;8.30;;
56319;SDS011;42226;42.382;23.748;2024-01-15T13:02:59;10.25;;;9.25;;
56319;SDS011;42226;42.382;23.748;2024-01-15T13:05:29;8.77;;;7.97;;
56319;SDS011;42226;42.382;23.748;2024-01-15T13:07:57;9.23;;;8.32;;
56319;SDS011;42226;42.382;23.748;2024-01-15T13:10:24;9.30;;;8.40;;
56319;SDS011;42226;42.382;23.748;2024-01-15T13:12:52;9.27;;;8.48;;
56319;SDS011;42226;42.382;23.748;2024-01-15T13:15:19;8.60;;;7.80;;
56319;SDS011;42226;42.382;23.748;2024-01-15T13:17:47;9.10;;;8.20;;
56319;SDS011;42226;42.382;23.748;2024-01-15T13:20:15;9.15;;;8.25;;
56319;SDS011;42226;42.382;23.748;2024-01-15T13:22:41;9.57;;;8.63;;
56319;SDS011;42226;42.382;23.748;2024-01-15T13:25:10;9.60;;;8.55;;
56319;SDS011;42226;42.382;23.748;2024-01-15T13:27:37;9.65;;;8.70;;
56319;SDS011;42226;42.382;23.748;2024-01-15T13:30:05;8.88;;;8.07;;
56319;SDS011;42226;42.382;23.748;2024-01-15T13:32:33;8.98;;;7.88;;
56319;SDS011;42226;42.382;23.748;2024-01-15T13:35:01;9.02;;;7.82;;
56319;SDS011;42226;42.382;23.748;2024-01-15T13:37:31;8.77;;;7.97;;
56319;SDS011;42226;42.382;23.748;2024-01-15T13:40:00;8.73;;;7.95;;
56319;SDS011;42226;42.382;23.748;2024-01-15T13:42:29;8.95;;;8.13;;
56319;SDS011;42226;42.382;23.748;2024-01-15T13:44:57;9.02;;;8.23;;
56319;SDS011;42226;42.382;23.748;2024-01-15T13:47:25;8.88;;;7.97;;
56319;SDS011;42226;42.382;23.748;2024-01-15T13:49:52;8.25;;;7.38;;
56319;SDS011;42226;42.382;23.748;2024-01-15T13:58:14;8.50;;;7.63;;
56319;SDS011;42226;42.382;23.748;2024-01-15T14:00:42;8.80;;;7.80;;
56319;SDS011;42226;42.382;23.748;2024-01-15T14:03:10;7.80;;;7.15;;
56319;SDS011;42226;42.382;23.748;2024-01-15T14:05:38;9.35;;;8.40;;
56319;SDS011;42226;42.382;23.748;2024-01-15T14:08:06;8.50;;;7.80;;
56319;SDS011;42226;42.382;23.748;2024-01-15T14:10:33;8.68;;;7.90;;
56319;SDS011;42226;42.382;23.748;2024-01-15T14:13:00;8.70;;;7.80;;
56319;SDS011;42226;42.382;23.748;2024-01-15T14:15:28;9.02;;;8.13;;
56319;SDS011;42226;42.382;23.748;2024-01-15T14:17:54;9.25;;;8.45;;
56319;SDS011;42226;42.382;23.748;2024-01-15T14:20:23;8.57;;;7.78;;
56319;SDS011;42226;42.382;23.748;2024-01-15T14:22:50;9.20;;;8.30;;
56319;SDS011;42226;42.382;23.748;2024-01-15T14:25:18;8.77;;;7.88;;
56319;SDS011;42226;42.382;23.748;2024-01-15T14:27:45;10.23;;;9.23;;
56319;SDS011;42226;42.382;23.748;2024-01-15T14:30:13;10.00;;;9.00;;
56319;SDS011;42226;42.382;23.748;2024-01-15T14:32:42;9.55;;;8.55;;
56319;SDS011;42226;42.382;23.748;2024-01-15T14:35:11;9.13;;;8.27;;
56319;SDS011;42226;42.382;23.748;2024-01-15T14:37:40;10.65;;;9.55;;
56319;SDS011;42226;42.382;23.748;2024-01-15T14:40:07;9.82;;;8.82;;
56319;SDS011;42226;42.382;23.748;2024-01-15T14:42:36;11.98;;;10.77;;
56319;SDS011;42226;42.382;23.748;2024-01-15T14:45:04;12.40;;;10.80;;
56319;SDS011;42226;42.382;23.748;2024-01-15T14:47:38;12.55;;;10.55;;
56319;SDS011;42226;42.382;23.748;2024-01-15T14:50:06;13.25;;;10.80;;
56319;SDS011;42226;42.382;23.748;2024-01-15T14:52:36;11.88;;;10.65;;
56319;SDS011;42226;42.382;23.748;2024-01-15T14:55:05;11.75;;;10.55;;
56319;SDS011;42226;42.382;23.748;2024-01-15T14:57:34;11.55;;;10.43;;
56319;SDS011;42226;42.382;23.748;2024-01-15T15:00:02;11.63;;;10.40;;
56319;SDS011;42226;42.382;23.748;2024-01-15T15:02:34;12.43;;;10.57;;
56319;SDS011;42226;42.382;23.748;2024-01-15T15:05:02;13.35;;;11.55;;
56319;SDS011;42226;42.382;23.748;2024-01-15T15:07:32;12.93;;;11.18;;
56319;SDS011;42226;42.382;23.748;2024-01-15T15:09:59;11.88;;;10.57;;
56319;SDS011;42226;42.382;23.748;2024-01-15T15:12:26;13.82;;;12.10;;